Amasa, Michigan
Current Conditions -  °F | °C
As of 5:54 AM on Thursday 27 Nov 2014 (Local Time) from KIMT Reporting Station
Clear Clear  
Wind Chill: -7°   Ceiling: Unl
Heat Index:   Visibility: 10mi
Dew Point:   Wind: 8mph
Humidity: 80%   Direction: 310°NW
Pressure: 30.26"   Gusts: NA
Location:  46.23°N, 88.45°W
Report Text: KIMT 271154Z AUTO 31007KT 10SM CLR M14/M17 A3026 RMK AO2 SLP273 60000 T11441172 11067 21144 53013
Loading
Personal Weather Stations






























Interactive Weather Map New forecast layout! Learn more

10-Day Weather Forecast

Advertisements
Track Severe Weather on mobile